JEF22 EGLF-LFPB
Flight info
| Callsign | JEF22 |
|---|---|
| Flight time | 0h 46m |
| Altitude | 25000 |
| Route | GWC DCT BOGNA DCT HARDY M605 XIDIL UM605 PETAX UZ296 VELOL |
| Aircraft | CL60/M-SBDE1E2E3FGHIJ1J3J4J5J7M3P2RWXYZ/LB1V1D1 |
Departure
| Time | 2026-04-18 08:50 |
|---|---|
| Airport | Farnborough Airport (EGLF) |
Arrival
| Time | 2026-04-18 09:36 |
|---|---|
| Airport | Paris-Le Bourget International Airport (LFPB) |
| Time | Latitude | Longitude | Altitude | Speed | Heading |
|---|---|---|---|---|---|
| 2026-04-18 08:23 | 51.27789 | -0.78146 | 242 ft | 0 kts | 169° |
| 2026-04-18 08:46 | 51.27776 | -0.78128 | 242 ft | 10 kts | 109° |
| 2026-04-18 08:46 | 51.27830 | -0.78012 | 242 ft | 13 kts | 38° |
| 2026-04-18 08:46 | 51.27918 | -0.77910 | 242 ft | 17 kts | 31° |
| 2026-04-18 08:46 | 51.28038 | -0.77855 | 242 ft | 17 kts | 19° |
| 2026-04-18 08:47 | 51.28143 | -0.77749 | 242 ft | 19 kts | 33° |
| 2026-04-18 08:47 | 51.28212 | -0.77618 | 242 ft | 14 kts | 89° |
| 2026-04-18 08:47 | 51.28184 | -0.77441 | 242 ft | 18 kts | 108° |
| 2026-04-18 08:47 | 51.28142 | -0.77225 | 242 ft | 22 kts | 107° |
| 2026-04-18 08:48 | 51.28093 | -0.76975 | 242 ft | 25 kts | 107° |
| 2026-04-18 08:48 | 51.28048 | -0.76746 | 242 ft | 10 kts | 107° |
| 2026-04-18 08:48 | 51.28038 | -0.76699 | 242 ft | 0 kts | 108° |
| 2026-04-18 08:48 | 51.28038 | -0.76697 | 242 ft | 0 kts | 108° |
| 2026-04-18 08:49 | 51.28037 | -0.76694 | 242 ft | 3 kts | 108° |
| 2026-04-18 08:49 | 51.28005 | -0.76543 | 242 ft | 20 kts | 114° |
| 2026-04-18 08:49 | 51.27942 | -0.76536 | 242 ft | 19 kts | 241° |
| 2026-04-18 08:49 | 51.27692 | -0.77290 | 242 ft | 131 kts | 242° |
| 2026-04-18 08:50 | 51.27174 | -0.78827 | 750 ft | 182 kts | 244° |
| 2026-04-18 08:50 | 51.26420 | -0.80634 | 1434 ft | 208 kts | 230° |
| 2026-04-18 08:50 | 51.25387 | -0.82341 | 1892 ft | 226 kts | 228° |
| 2026-04-18 08:50 | 51.24266 | -0.84100 | 3364 ft | 234 kts | 224° |
| 2026-04-18 08:51 | 51.22939 | -0.85406 | 5139 ft | 235 kts | 209° |
| 2026-04-18 08:51 | 51.21434 | -0.86505 | 6033 ft | 242 kts | 207° |
| 2026-04-18 08:51 | 51.19963 | -0.87549 | 6791 ft | 230 kts | 207° |
| 2026-04-18 08:51 | 51.18523 | -0.88575 | 7552 ft | 227 kts | 208° |
| 2026-04-18 08:52 | 51.17069 | -0.89613 | 8326 ft | 237 kts | 207° |
| 2026-04-18 08:52 | 51.15502 | -0.90703 | 9095 ft | 260 kts | 203° |
| 2026-04-18 08:52 | 51.13673 | -0.91134 | 9841 ft | 280 kts | 180° |
| 2026-04-18 08:52 | 51.11736 | -0.90116 | 10607 ft | 316 kts | 154° |
| 2026-04-18 08:53 | 51.09868 | -0.87931 | 11405 ft | 348 kts | 141° |
| 2026-04-18 08:53 | 51.08279 | -0.84947 | 12455 ft | 368 kts | 130° |
| 2026-04-18 08:53 | 51.06800 | -0.81629 | 13582 ft | 378 kts | 130° |
| 2026-04-18 08:53 | 51.05277 | -0.78216 | 14738 ft | 385 kts | 130° |
| 2026-04-18 08:54 | 51.03708 | -0.74705 | 15931 ft | 391 kts | 130° |
| 2026-04-18 08:54 | 51.02144 | -0.71209 | 17080 ft | 396 kts | 130° |
| 2026-04-18 08:54 | 51.00549 | -0.67650 | 18142 ft | 401 kts | 130° |
| 2026-04-18 08:54 | 50.98930 | -0.64041 | 19127 ft | 407 kts | 130° |
| 2026-04-18 08:55 | 50.97269 | -0.60347 | 20050 ft | 414 kts | 130° |
| 2026-04-18 08:55 | 50.95597 | -0.56631 | 20932 ft | 420 kts | 130° |
| 2026-04-18 08:55 | 50.93903 | -0.52873 | 21756 ft | 427 kts | 130° |
| 2026-04-18 08:55 | 50.92162 | -0.49014 | 22564 ft | 433 kts | 130° |
| 2026-04-18 08:56 | 50.90406 | -0.45128 | 23345 ft | 439 kts | 131° |
| 2026-04-18 08:56 | 50.88600 | -0.41139 | 24089 ft | 445 kts | 130° |
| 2026-04-18 08:56 | 50.86802 | -0.37173 | 24805 ft | 451 kts | 131° |
| 2026-04-18 08:56 | 50.84961 | -0.33119 | 25158 ft | 459 kts | 131° |
| 2026-04-18 08:57 | 50.81247 | -0.24945 | 25226 ft | 455 kts | 131° |
| 2026-04-18 08:57 | 50.79381 | -0.20846 | 25228 ft | 454 kts | 131° |
| 2026-04-18 08:57 | 50.77555 | -0.16845 | 25223 ft | 452 kts | 131° |
| 2026-04-18 08:58 | 50.75711 | -0.12809 | 25229 ft | 451 kts | 131° |
| 2026-04-18 08:58 | 50.73897 | -0.08845 | 25230 ft | 450 kts | 131° |
| 2026-04-18 08:58 | 50.72056 | -0.04831 | 25228 ft | 451 kts | 131° |
| 2026-04-18 08:58 | 50.70224 | -0.00841 | 25222 ft | 452 kts | 131° |
| 2026-04-18 08:59 | 50.68373 | 0.03181 | 25227 ft | 453 kts | 131° |
| 2026-04-18 08:59 | 50.66518 | 0.07208 | 25225 ft | 453 kts | 131° |
| 2026-04-18 08:59 | 50.64687 | 0.11176 | 25224 ft | 453 kts | 132° |
| 2026-04-18 08:59 | 50.62819 | 0.15219 | 25222 ft | 453 kts | 131° |
| 2026-04-18 09:00 | 50.60963 | 0.19228 | 25228 ft | 453 kts | 131° |
| 2026-04-18 09:00 | 50.59108 | 0.23230 | 25222 ft | 453 kts | 131° |
| 2026-04-18 09:00 | 50.57250 | 0.27232 | 25223 ft | 453 kts | 131° |
| 2026-04-18 09:00 | 50.55387 | 0.31238 | 25227 ft | 454 kts | 131° |
| 2026-04-18 09:01 | 50.53552 | 0.35179 | 25220 ft | 454 kts | 131° |
| 2026-04-18 09:01 | 50.51689 | 0.39172 | 25232 ft | 454 kts | 132° |
| 2026-04-18 09:01 | 50.49824 | 0.43165 | 25221 ft | 454 kts | 132° |
| 2026-04-18 09:01 | 50.47948 | 0.47163 | 25217 ft | 453 kts | 133° |
| 2026-04-18 09:02 | 50.45810 | 0.50758 | 24914 ft | 445 kts | 145° |
| 2026-04-18 09:02 | 50.43428 | 0.53780 | 24438 ft | 439 kts | 147° |
| 2026-04-18 09:02 | 50.41054 | 0.56756 | 23960 ft | 434 kts | 147° |
| 2026-04-18 09:02 | 50.38745 | 0.59654 | 23496 ft | 430 kts | 147° |
| 2026-04-18 09:03 | 50.36414 | 0.62575 | 23017 ft | 426 kts | 147° |
| 2026-04-18 09:03 | 50.34114 | 0.65455 | 22557 ft | 424 kts | 148° |
| 2026-04-18 09:03 | 50.31820 | 0.68326 | 22093 ft | 420 kts | 148° |
| 2026-04-18 09:03 | 50.29536 | 0.71181 | 21646 ft | 417 kts | 148° |
| 2026-04-18 09:04 | 50.27305 | 0.73967 | 21205 ft | 415 kts | 147° |
| 2026-04-18 09:04 | 50.25063 | 0.76764 | 20753 ft | 412 kts | 147° |
| 2026-04-18 09:04 | 50.22832 | 0.79544 | 20301 ft | 409 kts | 147° |
| 2026-04-18 09:04 | 50.20633 | 0.82283 | 19857 ft | 406 kts | 147° |
| 2026-04-18 09:05 | 50.18467 | 0.85107 | 19415 ft | 407 kts | 141° |
| 2026-04-18 09:05 | 50.16563 | 0.88377 | 18940 ft | 408 kts | 136° |
| 2026-04-18 09:05 | 50.14706 | 0.91700 | 18498 ft | 403 kts | 136° |
| 2026-04-18 09:05 | 50.12893 | 0.94928 | 18062 ft | 396 kts | 136° |
| 2026-04-18 09:06 | 50.11097 | 0.98124 | 17629 ft | 389 kts | 136° |
| 2026-04-18 09:06 | 50.09343 | 1.01241 | 17202 ft | 381 kts | 136° |
| 2026-04-18 09:06 | 50.07616 | 1.04305 | 16790 ft | 373 kts | 135° |
| 2026-04-18 09:06 | 50.05930 | 1.07291 | 16375 ft | 366 kts | 135° |
| 2026-04-18 09:07 | 50.04270 | 1.10229 | 15974 ft | 358 kts | 135° |
| 2026-04-18 09:07 | 50.02642 | 1.13104 | 15608 ft | 351 kts | 135° |
| 2026-04-18 09:07 | 50.01041 | 1.15930 | 15189 ft | 345 kts | 135° |
| 2026-04-18 09:07 | 49.99479 | 1.18684 | 14824 ft | 337 kts | 135° |
| 2026-04-18 09:08 | 49.97940 | 1.21393 | 14446 ft | 330 kts | 135° |
| 2026-04-18 09:08 | 49.96455 | 1.24004 | 14093 ft | 323 kts | 135° |
| 2026-04-18 09:08 | 49.94977 | 1.26601 | 13735 ft | 317 kts | 135° |
| 2026-04-18 09:08 | 49.93454 | 1.28976 | 13387 ft | 307 kts | 147° |
| 2026-04-18 09:09 | 49.91676 | 1.30743 | 13038 ft | 301 kts | 153° |
| 2026-04-18 09:09 | 49.89923 | 1.32375 | 12715 ft | 300 kts | 153° |
| 2026-04-18 09:09 | 49.88091 | 1.34091 | 12380 ft | 301 kts | 153° |
| 2026-04-18 09:09 | 49.86297 | 1.35772 | 12037 ft | 299 kts | 153° |
| 2026-04-18 09:10 | 49.84534 | 1.37424 | 11712 ft | 297 kts | 153° |
| 2026-04-18 09:10 | 49.82769 | 1.39077 | 11377 ft | 295 kts | 153° |
| 2026-04-18 09:10 | 49.81016 | 1.40719 | 11061 ft | 291 kts | 153° |
| 2026-04-18 09:10 | 49.79301 | 1.42323 | 10742 ft | 290 kts | 152° |
| 2026-04-18 09:11 | 49.77578 | 1.43934 | 10417 ft | 288 kts | 152° |
| 2026-04-18 09:11 | 49.75877 | 1.45525 | 10105 ft | 287 kts | 152° |
| 2026-04-18 09:11 | 49.74169 | 1.47120 | 9782 ft | 285 kts | 152° |
| 2026-04-18 09:11 | 49.72471 | 1.48704 | 9472 ft | 284 kts | 152° |
| 2026-04-18 09:12 | 49.70752 | 1.50170 | 9149 ft | 279 kts | 161° |
| 2026-04-18 09:12 | 49.68930 | 1.51006 | 8963 ft | 272 kts | 168° |
| 2026-04-18 09:12 | 49.67081 | 1.51755 | 8893 ft | 276 kts | 168° |
| 2026-04-18 09:12 | 49.65239 | 1.52512 | 8733 ft | 275 kts | 168° |
| 2026-04-18 09:13 | 49.63389 | 1.53273 | 8599 ft | 275 kts | 168° |
| 2026-04-18 09:13 | 49.61550 | 1.54029 | 8452 ft | 275 kts | 168° |
| 2026-04-18 09:13 | 49.59693 | 1.54793 | 8308 ft | 275 kts | 168° |
| 2026-04-18 09:13 | 49.57851 | 1.55551 | 8160 ft | 275 kts | 168° |
| 2026-04-18 09:14 | 49.55994 | 1.56314 | 7911 ft | 274 kts | 167° |
| 2026-04-18 09:14 | 49.54177 | 1.57062 | 7662 ft | 272 kts | 167° |
| 2026-04-18 09:14 | 49.52354 | 1.57812 | 7422 ft | 270 kts | 167° |
| 2026-04-18 09:14 | 49.50551 | 1.58552 | 7232 ft | 268 kts | 167° |
| 2026-04-18 09:15 | 49.48739 | 1.59330 | 7211 ft | 269 kts | 162° |
| 2026-04-18 09:15 | 49.47087 | 1.60757 | 7219 ft | 275 kts | 142° |
| 2026-04-18 09:15 | 49.45889 | 1.63039 | 7217 ft | 281 kts | 119° |
| 2026-04-18 09:15 | 49.45356 | 1.65961 | 7222 ft | 286 kts | 97° |
| 2026-04-18 09:16 | 49.45240 | 1.68978 | 7218 ft | 287 kts | 95° |
| 2026-04-18 09:16 | 49.45132 | 1.72043 | 7218 ft | 286 kts | 95° |
| 2026-04-18 09:16 | 49.45021 | 1.75097 | 7219 ft | 287 kts | 95° |
| 2026-04-18 09:16 | 49.44912 | 1.78154 | 7214 ft | 287 kts | 95° |
| 2026-04-18 09:17 | 49.44801 | 1.81212 | 7216 ft | 287 kts | 95° |
| 2026-04-18 09:17 | 49.44690 | 1.84278 | 7215 ft | 287 kts | 95° |
| 2026-04-18 09:17 | 49.44580 | 1.87334 | 7216 ft | 286 kts | 95° |
| 2026-04-18 09:17 | 49.44471 | 1.90352 | 7216 ft | 286 kts | 95° |
| 2026-04-18 09:18 | 49.44360 | 1.93419 | 7212 ft | 286 kts | 95° |
| 2026-04-18 09:18 | 49.44247 | 1.96487 | 7213 ft | 286 kts | 95° |
| 2026-04-18 09:18 | 49.44137 | 1.99506 | 7209 ft | 286 kts | 95° |
| 2026-04-18 09:18 | 49.44024 | 2.02578 | 7213 ft | 286 kts | 95° |
| 2026-04-18 09:19 | 49.43912 | 2.05600 | 7213 ft | 286 kts | 95° |
| 2026-04-18 09:19 | 49.43799 | 2.08656 | 7215 ft | 286 kts | 95° |
| 2026-04-18 09:19 | 49.43684 | 2.11712 | 7212 ft | 286 kts | 95° |
| 2026-04-18 09:19 | 49.43562 | 2.14760 | 7213 ft | 286 kts | 97° |
| 2026-04-18 09:20 | 49.43158 | 2.17704 | 7210 ft | 284 kts | 110° |
| 2026-04-18 09:20 | 49.42553 | 2.20603 | 7209 ft | 284 kts | 109° |
| 2026-04-18 09:20 | 49.41954 | 2.23494 | 7212 ft | 285 kts | 109° |
| 2026-04-18 09:20 | 49.41356 | 2.26385 | 7210 ft | 284 kts | 109° |
| 2026-04-18 09:21 | 49.40756 | 2.29284 | 7206 ft | 284 kts | 109° |
| 2026-04-18 09:21 | 49.40155 | 2.32190 | 7196 ft | 285 kts | 109° |
| 2026-04-18 09:21 | 49.39558 | 2.35073 | 7197 ft | 284 kts | 109° |
| 2026-04-18 09:21 | 49.38959 | 2.37975 | 7189 ft | 284 kts | 109° |
| 2026-04-18 09:22 | 49.38367 | 2.40841 | 7206 ft | 284 kts | 109° |
| 2026-04-18 09:22 | 49.37769 | 2.43736 | 7202 ft | 284 kts | 109° |
| 2026-04-18 09:22 | 49.37170 | 2.46630 | 7202 ft | 284 kts | 109° |
| 2026-04-18 09:22 | 49.36579 | 2.49487 | 7214 ft | 284 kts | 109° |
| 2026-04-18 09:23 | 49.35885 | 2.52323 | 7203 ft | 282 kts | 118° |
| 2026-04-18 09:23 | 49.34932 | 2.54972 | 7197 ft | 282 kts | 121° |
| 2026-04-18 09:23 | 49.33959 | 2.57554 | 7211 ft | 283 kts | 122° |
| 2026-04-18 09:23 | 49.32970 | 2.60164 | 7205 ft | 283 kts | 122° |
| 2026-04-18 09:24 | 49.31972 | 2.62798 | 7196 ft | 283 kts | 122° |
| 2026-04-18 09:24 | 49.30997 | 2.65382 | 7202 ft | 283 kts | 122° |
| 2026-04-18 09:24 | 49.30000 | 2.67997 | 7202 ft | 282 kts | 122° |
| 2026-04-18 09:24 | 49.29007 | 2.70597 | 7198 ft | 282 kts | 122° |
| 2026-04-18 09:25 | 49.28014 | 2.73188 | 7172 ft | 282 kts | 122° |
| 2026-04-18 09:25 | 49.27022 | 2.75779 | 7050 ft | 282 kts | 122° |
| 2026-04-18 09:25 | 49.26038 | 2.78323 | 6933 ft | 281 kts | 122° |
| 2026-04-18 09:25 | 49.25040 | 2.80910 | 6806 ft | 280 kts | 122° |
| 2026-04-18 09:26 | 49.24049 | 2.83469 | 6678 ft | 279 kts | 122° |
| 2026-04-18 09:26 | 49.23063 | 2.86023 | 6559 ft | 279 kts | 122° |
| 2026-04-18 09:26 | 49.22087 | 2.88546 | 6431 ft | 278 kts | 122° |
| 2026-04-18 09:26 | 49.21099 | 2.91096 | 6306 ft | 278 kts | 122° |
| 2026-04-18 09:27 | 49.19870 | 2.93333 | 6188 ft | 273 kts | 146° |
| 2026-04-18 09:27 | 49.18152 | 2.94339 | 6075 ft | 267 kts | 177° |
| 2026-04-18 09:27 | 49.16328 | 2.93911 | 5958 ft | 264 kts | 200° |
| 2026-04-18 09:27 | 49.14590 | 2.92953 | 5824 ft | 264 kts | 202° |
| 2026-04-18 09:28 | 49.12870 | 2.91957 | 5702 ft | 264 kts | 202° |
| 2026-04-18 09:28 | 49.11152 | 2.90950 | 5577 ft | 264 kts | 202° |
| 2026-04-18 09:28 | 49.09457 | 2.89951 | 5455 ft | 264 kts | 202° |
| 2026-04-18 09:28 | 49.07755 | 2.88949 | 5334 ft | 254 kts | 202° |
| 2026-04-18 09:29 | 49.06146 | 2.88008 | 5236 ft | 239 kts | 202° |
| 2026-04-18 09:29 | 49.04668 | 2.87150 | 5145 ft | 218 kts | 202° |
| 2026-04-18 09:29 | 49.03277 | 2.86352 | 5041 ft | 210 kts | 202° |
| 2026-04-18 09:29 | 49.01916 | 2.85574 | 4917 ft | 209 kts | 202° |
| 2026-04-18 09:30 | 49.00698 | 2.84409 | 4784 ft | 207 kts | 229° |
| 2026-04-18 09:30 | 48.99841 | 2.82655 | 4639 ft | 207 kts | 236° |
| 2026-04-18 09:30 | 48.99024 | 2.80844 | 4446 ft | 207 kts | 236° |
| 2026-04-18 09:30 | 48.98315 | 2.78959 | 4241 ft | 205 kts | 253° |
| 2026-04-18 09:31 | 48.98134 | 2.76810 | 4040 ft | 205 kts | 266° |
| 2026-04-18 09:31 | 48.98065 | 2.74634 | 3848 ft | 205 kts | 266° |
| 2026-04-18 09:31 | 48.97985 | 2.72474 | 3650 ft | 205 kts | 265° |
| 2026-04-18 09:31 | 48.97879 | 2.70287 | 3424 ft | 206 kts | 265° |
| 2026-04-18 09:32 | 48.97765 | 2.68127 | 3166 ft | 204 kts | 264° |
| 2026-04-18 09:32 | 48.97652 | 2.66023 | 2909 ft | 193 kts | 265° |
| 2026-04-18 09:32 | 48.97551 | 2.64092 | 2644 ft | 179 kts | 265° |
| 2026-04-18 09:32 | 48.97452 | 2.62232 | 2436 ft | 170 kts | 265° |
| 2026-04-18 09:33 | 48.97360 | 2.60493 | 2232 ft | 161 kts | 265° |
| 2026-04-18 09:33 | 48.97269 | 2.58779 | 2008 ft | 161 kts | 265° |
| 2026-04-18 09:33 | 48.97180 | 2.57108 | 1798 ft | 160 kts | 266° |
| 2026-04-18 09:33 | 48.97090 | 2.55407 | 1585 ft | 160 kts | 265° |
| 2026-04-18 09:34 | 48.97004 | 2.53744 | 1379 ft | 155 kts | 265° |
| 2026-04-18 09:34 | 48.96925 | 2.52224 | 1213 ft | 135 kts | 265° |
| 2026-04-18 09:34 | 48.96850 | 2.50831 | 1013 ft | 131 kts | 266° |
| 2026-04-18 09:34 | 48.96767 | 2.49466 | 875 ft | 128 kts | 265° |
| 2026-04-18 09:35 | 48.96695 | 2.48128 | 691 ft | 127 kts | 264° |
| 2026-04-18 09:35 | 48.96623 | 2.46789 | 516 ft | 127 kts | 264° |
| 2026-04-18 09:35 | 48.96549 | 2.45463 | 328 ft | 125 kts | 265° |
| 2026-04-18 09:35 | 48.96483 | 2.44170 | 174 ft | 118 kts | 264° |
| 2026-04-18 09:36 | 48.96425 | 2.43098 | 162 ft | 74 kts | 266° |
| 2026-04-18 09:36 | 48.96400 | 2.42621 | 161 ft | 21 kts | 265° |
| 2026-04-18 09:36 | 48.96356 | 2.42492 | 160 ft | 15 kts | 195° |
| 2026-04-18 09:36 | 48.96267 | 2.42539 | 159 ft | 13 kts | 127° |
| 2026-04-18 09:37 | 48.96199 | 2.42670 | 158 ft | 16 kts | 129° |
| 2026-04-18 09:37 | 48.96115 | 2.42830 | 155 ft | 22 kts | 128° |
| 2026-04-18 09:37 | 48.96008 | 2.43034 | 150 ft | 27 kts | 128° |
| 2026-04-18 09:37 | 48.95918 | 2.43266 | 148 ft | 24 kts | 115° |
| 2026-04-18 09:38 | 48.95851 | 2.43485 | 147 ft | 26 kts | 115° |
| 2026-04-18 09:38 | 48.95787 | 2.43669 | 147 ft | 14 kts | 147° |
| 2026-04-18 09:38 | 48.95693 | 2.43639 | 146 ft | 17 kts | 205° |
| 2026-04-18 09:38 | 48.95570 | 2.43552 | 145 ft | 21 kts | 206° |
| 2026-04-18 09:39 | 48.95423 | 2.43449 | 146 ft | 24 kts | 205° |
| 2026-04-18 09:39 | 48.95282 | 2.43351 | 147 ft | 13 kts | 205° |
| 2026-04-18 09:39 | 48.95197 | 2.43363 | 148 ft | 14 kts | 117° |
| 2026-04-18 09:39 | 48.95148 | 2.43524 | 148 ft | 16 kts | 116° |
| 2026-04-18 09:40 | 48.95076 | 2.43574 | 148 ft | 13 kts | 204° |
| 2026-04-18 09:40 | 48.94990 | 2.43594 | 149 ft | 14 kts | 120° |
| 2026-04-18 09:40 | 48.95006 | 2.43615 | 149 ft | 0 kts | 331° |